Iselin, New Jersey
Current Conditions -  °F | °C
As of 3:35 AM on Thursday 27 Nov 2014 (Local Time) from KLDJ Reporting Station
Overcast Overcast  
Wind Chill: 35°   Ceiling: 6000
Heat Index: 40°   Visibility: 10mi
Dew Point: 36°   Wind: 6mph
Humidity: 86%   Direction: 290°WNW
Pressure: 29.94"   Gusts: NA
Location:  40.57°N, 74.32°W
Report Text: KLDJ 270835Z AUTO 29005KT 10SM BKN060 OVC070 04/02 A2994 RMK AO2 T00420020
Loading
Personal Weather Stations






























Interactive Weather Map New forecast layout! Learn more

10-Day Weather Forecast

Advertisements
Track Severe Weather on mobile